Sawyer County Airport
KHYR : now visible

Airfield :











YOU CAN JOIN US ON...

 
LOGIN :

Register | Disclaimer

   EN    FR    IT 

 









Legend :    VFR   Marginal VFR   IFR   Intensive IFR   Very Intensive IFR
Visi :
Ceiling :
>= 8 km
>= 3000ft
5 to 8 km
1000 to 3000 ft
1500m to 5 km
500 to 1000 ft
800 to 1500m
200 to 500 ft
< 800m
< 200 ft
Symbols :   Thunderstorms  Fog  Heavy snow  Heavy precipitations  Wind > 20 kt







- Airport Elevation : 1216 ft


KHYR - Sawyer County

CURRENT METAR :
  • 211753Z AUTO 06008KT 10SM -RA OVC100 09/07 A2991 RMK AO2 RAB26 SLP133 P0001 60003 T00940067 10128 20083 50008

EXPIRED METARs :
  • 211653Z AUTO 05012G19KT 10SM OVC090 09/07 A2992 RMK AO2 RAE36 SLP138 P0000 T00940072
  • 211553Z AUTO 05005KT 5SM -RA FEW050 BKN070 OVC095 11/08 A2994 RMK AO2 RAB23 SLP144 P0002 T01060078

TAF KHYR
Valid from the 21 at 18:00 until the 22 at 18:00 UTC


211723Z 2118/2218 06009G17KT P6SM VCSH BKN060 OVC080
FM212200 05010G17KT P6SM SCT060 BKN090
FM220200 04010G17KT 6SM BR VCSH OVC025
FM220400 05009G16KT P6SM -SHRA OVC015
FM220700 05008G17KT 5SM SHRA BR OVC015
FM221400 05010G18KT 4SM SHRA BR OVC009
KZMP FIR / North America



MET'MAP, your aeronautical weather chart ! - Copyright ORBIFLY December 2007 - Disclaimer

ORBIFLY MET'MAP TEAM :

Programming & Development : Alexandra Zaïnal
Concept & Development : Baudouin d'Aumeries
Co-Development & Prog : Marc-Olivier Méhu
Technical & hardware support : Manuel Goepfert

Contact : metmap@orbifly.com




SOURCES & CREDITS :

   NOAA       Earth
Advisory